Historyczne dane pomiarowe

Dodano dane terminowe – wersja testowa.

Dane z okresu 1951-2019

Wersja bazy: 1.34 [2019-03-16, lista zmian], aktualizacja planowana na 2019-04-15

Dane meteo z obszaru Polski uzyskane na podstawie danych udostępnionych przez Instytut Meteorologii i Gospodarki Wodnej – Państwowy Instytut Badawczy.

 

Wybierz Datę:    

       

TemperaturaWilgotnośćWiatrCiśnienieOpadyŚniegCzas trwania zjawisk
 Stacja t tx tn tng RH VA  wxwx mslp ppp RRR   cm mm wxwxwxwxwxwxwx
1991-02-14 -5.8 -4.5 -6.8 -8.4 86.0- 5.3 4.3---- 0.0-- 9---------
1991-02-15 -5.3 -3.0 -7.2 -8.5 76.3- 3.7 3.7---- 0.1-- 9---------
1991-02-16 -5.4 -3.5 -6.9-11.0 89.3- 6.7 3.7---- 2.6-- 10---------
1991-02-17 -2.9 -0.3 -6.9 -8.5 90.0- 7.0 4.7---- 0.0-- 10---------
1991-02-18 -0.5 2.0 -2.2 -8.3 87.8- 2.3 3.0---- 0.0-- 8---------
1991-02-19 -4.5 2.2-12.9-15.4 87.3- 1.3 1.3---- 0.0-- 6---------
1991-02-20 1.2 5.0 -3.4 -2.4 88.0- 5.3 1.7---- 0.0-- 5---------
1991-02-21 -0.9 4.3 -5.8-11.1 86.5- 3.0 3.0---- 0.0------------
1991-02-22 1.2 5.6 -2.8 -7.2 88.8- 3.3 3.3---- 0.1------------
1991-02-23 2.6 5.7 -1.8 -7.8 89.0- 6.7 5.0---- 1.0------------
1991-02-24 5.4 10.4 2.4 1.7 90.3- 6.0 2.3---- 0.0------------
1991-02-25 4.8 13.5 -1.4 -5.3 88.0- 6.7 4.3---- 0.0------------
1991-02-26 2.9 8.3 0.9 -1.5 93.5- 4.7 3.3---- 0.0------------
1991-02-27 -0.3 1.4 -1.2 -2.3 87.5- 5.3 2.3---- 0.0------------
1991-02-28 -0.1 1.9 -0.6 -1.7 86.3- 8.0 2.0---- 0.0------------
1991-03-01 0.3 6.0 -2.6 -4.0 87.0- 2.0 7.0---- 0.0------------
1991-03-02 0.4 2.4 -0.8 -3.0 90.0- 8.0 3.7---- 0.0------------
1991-03-03 2.5 5.5 -1.3 -4.6 90.0- 8.0 2.3---- 0.0------------
1991-03-04 2.3 10.0 -1.4 -4.7 88.8- 4.0 0.3---- 0.0------------
1991-03-05 1.9 6.5 -1.8 -5.6 91.5- 2.3 2.3---- 0.0------------
1991-03-06 3.0 6.8 0.2 -2.4 91.5- 8.0 6.0---- 0.0------------
1991-03-07 3.7 7.6 0.4 -1.0 88.0- 3.3 7.0---- 0.0------------
1991-03-08 6.4 14.0 1.0 -1.1 87.8- 1.7 2.7---- 0.0------------
1991-03-09 9.8 15.3 3.5 0.7 78.3- 3.3 4.7---- 0.0------------
1991-03-10 8.1 13.1 1.6 -1.7 84.0- 5.0 1.3---- 0.0------------
1991-03-11 8.2 11.7 1.4 0.1 87.0- 6.7 0.3---- 0.0------------
1991-03-12 8.8 16.1 4.1 -0.4 84.0- 2.7 1.0---- 0.0------------
1991-03-13 8.6 15.0 3.2 0.7 89.0- 1.3 1.3---- 0.0------------
1991-03-14 7.3 17.0 0.2 0.0 82.8- 2.3 0.7---- 0.0------------
1991-03-15 8.5 18.0 0.6 -3.1 79.0- 4.0 2.3---- 0.3------------
148.3 ms

 

Źródłem pochodzenia danych jest Instytut Meteorologii i Gospodarki Wodnej – Państwowy Instytut Badawczy. Dane Instytutu Meteorologii i Gospodarki Wodnej – Państwowego Instytutu Badawczego zostały przetworzone.

Dane źródłowe można odnaleźć na stronie https://dane.imgw.pl